createdAt,value
2022-12-18T00:01:33.037Z,-1.28
2022-12-18T00:04:02.767Z,-1.35
2022-12-18T00:06:31.609Z,-1.26
2022-12-18T00:09:00.183Z,-1.40
2022-12-18T00:11:29.925Z,-1.29
2022-12-18T00:14:01.299Z,-1.30
2022-12-18T00:16:31.161Z,-1.34
2022-12-18T00:19:01.712Z,-1.21
2022-12-18T00:21:31.493Z,-1.46
2022-12-18T00:23:59.785Z,-1.51
2022-12-18T00:26:29.956Z,-1.27
2022-12-18T00:29:03.071Z,-1.31
2022-12-18T00:31:31.453Z,-1.38
2022-12-18T00:33:59.477Z,-1.20
2022-12-18T00:36:29.738Z,-1.31
2022-12-18T00:39:00.393Z,-1.37
2022-12-18T00:42:01.227Z,-1.22
2022-12-18T00:44:33.000Z,-1.43
2022-12-18T00:47:00.864Z,-1.33
2022-12-18T00:49:28.672Z,-1.25
2022-12-18T00:51:56.542Z,-1.23
2022-12-18T00:54:24.507Z,-1.46
2022-12-18T00:56:52.789Z,-1.48
2022-12-18T00:59:20.800Z,-1.50
2022-12-18T01:01:50.099Z,-1.28
2022-12-18T01:04:18.106Z,-1.41
2022-12-18T01:06:45.918Z,-1.32
2022-12-18T01:09:14.138Z,-1.30
2022-12-18T01:11:42.147Z,-1.37
2022-12-18T01:14:09.963Z,-1.50
2022-12-18T01:16:37.841Z,-1.36
2022-12-18T01:19:07.338Z,-1.33
2022-12-18T01:21:35.528Z,-1.25
2022-12-18T01:24:03.417Z,-1.26
2022-12-18T01:26:31.578Z,-1.32
2022-12-18T01:29:00.034Z,-1.26
2022-12-18T01:31:30.918Z,-1.32
2022-12-18T01:34:00.180Z,-1.41
2022-12-18T01:36:31.111Z,-1.46
2022-12-18T01:39:01.355Z,-1.29
2022-12-18T01:41:52.728Z,-1.26
2022-12-18T01:45:03.286Z,-1.19
2022-12-18T01:47:43.382Z,-1.19
2022-12-18T01:50:17.967Z,-1.26
2022-12-18T01:52:51.165Z,-1.37
2022-12-18T01:55:22.839Z,-1.72
2022-12-18T01:57:53.661Z,-1.52
2022-12-18T02:00:23.958Z,-1.45
2022-12-18T02:02:52.012Z,-1.49
2022-12-18T02:05:36.208Z,-1.71
2022-12-18T02:08:12.881Z,-1.55
2022-12-18T02:10:49.222Z,-1.49
2022-12-18T02:13:22.714Z,-1.52
2022-12-18T02:15:58.916Z,-1.51
2022-12-18T02:18:32.402Z,-1.51
2022-12-18T02:21:07.085Z,-1.49
2022-12-18T02:23:49.418Z,-1.42
2022-12-18T02:26:22.657Z,-1.36
2022-12-18T02:28:56.647Z,-1.31
2022-12-18T02:31:28.780Z,-1.48
2022-12-18T02:34:01.099Z,-1.10
2022-12-18T02:36:30.459Z,-1.07
2022-12-18T02:39:00.319Z,-1.53
2022-12-18T02:41:30.645Z,-1.75
2022-12-18T02:44:00.143Z,-1.91
2022-12-18T02:46:33.401Z,-1.90
2022-12-18T02:49:10.472Z,-1.78
2022-12-18T02:51:48.706Z,-1.83
2022-12-18T02:54:27.061Z,-1.60
2022-12-18T02:56:59.796Z,-1.12
2022-12-18T02:59:33.861Z,-1.44
2022-12-18T03:02:07.942Z,-1.37
2022-12-18T03:04:42.379Z,-1.26
2022-12-18T03:07:17.566Z,-1.28
2022-12-18T03:09:49.900Z,-0.89
2022-12-18T03:12:26.221Z,-1.02
2022-12-18T03:15:01.487Z,-1.37
2022-12-18T03:17:32.137Z,-1.31
2022-12-18T03:20:05.336Z,-1.22
2022-12-18T03:22:35.961Z,-1.51
2022-12-18T03:25:07.920Z,-1.28
2022-12-18T03:27:40.037Z,-1.45
2022-12-18T03:30:13.118Z,-1.68
2022-12-18T03:32:45.276Z,-1.58
2022-12-18T03:35:16.404Z,-1.40
2022-12-18T03:37:44.175Z,-1.50
2022-12-18T03:40:12.948Z,-1.40
2022-12-18T03:42:48.841Z,-1.37
2022-12-18T03:45:25.316Z,-1.36
2022-12-18T03:48:03.163Z,-1.44
2022-12-18T03:50:40.091Z,-1.36
2022-12-18T03:53:18.041Z,-1.51
2022-12-18T03:55:46.927Z,-1.49
2022-12-18T03:58:20.391Z,-1.39
2022-12-18T04:00:52.272Z,-1.40
2022-12-18T04:03:25.441Z,-1.40
2022-12-18T04:05:56.901Z,-1.41
2022-12-18T04:08:26.835Z,-1.56
2022-12-18T04:10:54.629Z,-1.64
2022-12-18T04:13:30.355Z,-1.68
2022-12-18T04:15:58.378Z,-1.57
2022-12-18T04:18:26.762Z,-1.59
2022-12-18T04:20:55.095Z,-1.56
2022-12-18T04:23:23.914Z,-1.62
2022-12-18T04:25:51.784Z,-1.53
2022-12-18T04:28:19.872Z,-1.63
2022-12-18T04:30:49.345Z,-1.54
2022-12-18T04:33:20.415Z,-1.49
2022-12-18T04:35:48.669Z,-1.39
2022-12-18T04:38:16.516Z,-1.33
2022-12-18T04:40:44.538Z,-1.32
2022-12-18T04:43:12.421Z,-1.38
2022-12-18T04:45:40.846Z,-1.30
2022-12-18T04:48:10.325Z,-1.32
2022-12-18T04:50:38.608Z,-1.30
2022-12-18T04:53:06.446Z,-1.31
2022-12-18T04:55:34.474Z,-1.32
2022-12-18T04:58:02.279Z,-1.30
2022-12-18T05:00:30.130Z,-1.43
2022-12-18T05:02:57.997Z,-1.46
2022-12-18T05:05:27.529Z,-1.43
2022-12-18T05:07:55.312Z,-1.38
2022-12-18T05:10:23.111Z,-1.38
2022-12-18T05:13:03.089Z,-1.43
2022-12-18T05:15:31.483Z,-1.52
2022-12-18T05:17:59.360Z,-1.46
2022-12-18T05:20:29.664Z,-1.41
2022-12-18T05:22:58.212Z,-1.40
2022-12-18T05:25:26.024Z,-1.56
2022-12-18T05:27:54.075Z,-1.52
2022-12-18T05:30:21.868Z,-1.53
2022-12-18T05:32:49.615Z,-1.37
2022-12-18T05:35:17.473Z,-1.34
2022-12-18T05:37:46.996Z,-1.28
2022-12-18T05:40:15.098Z,-1.21
2022-12-18T05:42:42.998Z,-1.39
2022-12-18T05:45:11.362Z,-1.52
2022-12-18T05:47:39.158Z,-1.59
2022-12-18T05:50:08.489Z,-1.49
2022-12-18T05:52:36.274Z,-1.46
2022-12-18T05:55:06.168Z,-1.46
2022-12-18T05:57:34.345Z,-1.54
2022-12-18T06:00:02.144Z,-1.46
2022-12-18T06:02:30.085Z,-1.37
2022-12-18T06:04:58.255Z,-1.39
2022-12-18T06:07:26.030Z,-1.44
2022-12-18T06:09:53.959Z,-1.35
2022-12-18T06:12:23.298Z,-1.36
2022-12-18T06:14:51.038Z,-1.39
2022-12-18T06:17:18.762Z,-1.21
2022-12-18T06:19:46.820Z,-1.26
2022-12-18T06:22:14.606Z,-1.31
2022-12-18T06:24:42.439Z,-1.25
2022-12-18T06:27:10.694Z,-1.33
2022-12-18T06:29:39.789Z,-1.29
2022-12-18T06:32:07.934Z,-1.36
2022-12-18T06:34:36.517Z,-1.30
2022-12-18T06:37:04.231Z,-1.27
2022-12-18T06:39:32.408Z,-1.38
2022-12-18T06:42:00.267Z,-1.34
2022-12-18T06:44:28.044Z,-1.31
2022-12-18T06:46:57.260Z,-1.42
2022-12-18T06:49:30.319Z,-1.42
2022-12-18T06:51:58.740Z,-1.42
2022-12-18T06:54:26.492Z,-1.36
2022-12-18T06:56:54.212Z,-1.28
2022-12-18T06:59:21.926Z,-1.42
2022-12-18T07:01:50.027Z,-1.44
2022-12-18T07:04:19.243Z,-1.38
2022-12-18T07:06:47.151Z,-1.41
2022-12-18T07:09:14.927Z,-1.24
2022-12-18T07:11:42.652Z,-1.20
2022-12-18T07:14:10.414Z,-1.23
2022-12-18T07:16:38.234Z,-1.29
2022-12-18T07:19:06.055Z,-1.23
2022-12-18T07:21:35.221Z,-1.21
2022-12-18T07:24:03.123Z,-1.34
2022-12-18T07:26:32.094Z,-1.20
2022-12-18T07:29:00.155Z,-1.24
2022-12-18T07:31:28.631Z,-1.21
2022-12-18T07:33:57.679Z,-1.22
2022-12-18T07:36:25.562Z,-1.10
2022-12-18T07:38:54.794Z,-1.10
2022-12-18T07:41:22.911Z,-1.10
2022-12-18T07:43:51.093Z,-1.13
2022-12-18T07:46:19.047Z,-1.10
2022-12-18T07:48:49.336Z,-1.12
2022-12-18T07:51:18.909Z,-1.04
2022-12-18T07:53:46.954Z,-0.94
2022-12-18T07:56:27.845Z,-0.98
2022-12-18T07:58:57.117Z,-0.92
2022-12-18T08:01:25.287Z,-1.04
2022-12-18T08:03:53.273Z,-0.92
2022-12-18T08:06:22.473Z,-0.79
2022-12-18T08:08:53.423Z,-0.71
2022-12-18T08:11:23.379Z,-0.75
2022-12-18T08:13:51.226Z,-0.86
2022-12-18T08:16:20.006Z,-0.85
2022-12-18T08:18:49.497Z,-0.86
2022-12-18T08:21:19.095Z,-0.75
2022-12-18T08:23:48.941Z,-0.72
2022-12-18T08:26:17.117Z,-0.65
2022-12-18T08:28:46.603Z,-0.69
2022-12-18T08:31:14.395Z,-0.70
2022-12-18T08:33:44.414Z,-0.55
2022-12-18T08:36:13.043Z,-0.49
2022-12-18T08:38:41.062Z,-0.51
2022-12-18T08:41:12.510Z,-0.43
2022-12-18T08:43:57.766Z,-0.32
2022-12-18T08:46:30.083Z,-0.15
2022-12-18T08:48:58.513Z,-0.34
2022-12-18T08:51:26.291Z,-0.26
2022-12-18T08:53:54.019Z,-0.26
2022-12-18T08:56:21.717Z,-0.43
2022-12-18T08:58:49.498Z,-0.36
2022-12-18T09:01:17.384Z,-0.02
2022-12-18T09:03:46.628Z,0.07
2022-12-18T09:06:17.150Z,-0.01
2022-12-18T09:08:45.426Z,-0.16
2022-12-18T09:11:15.854Z,-0.04
2022-12-18T09:13:43.715Z,-0.03
2022-12-18T09:16:11.761Z,-0.16
2022-12-18T09:18:39.895Z,0.20
2022-12-18T09:21:14.409Z,0.27
2022-12-18T09:23:42.496Z,0.25
2022-12-18T09:26:10.652Z,0.50
2022-12-18T09:28:38.785Z,0.32
2022-12-18T09:31:08.935Z,0.08
2022-12-18T09:33:37.629Z,0.29
2022-12-18T09:36:08.682Z,0.47
2022-12-18T09:38:38.493Z,0.59
2022-12-18T09:41:17.811Z,0.74
2022-12-18T09:43:49.493Z,0.77
2022-12-18T09:46:21.245Z,0.68
2022-12-18T09:48:53.273Z,0.74
2022-12-18T09:51:22.336Z,0.69
2022-12-18T09:53:57.717Z,0.73
2022-12-18T09:56:30.635Z,0.62
2022-12-18T09:59:01.608Z,0.60
2022-12-18T10:01:41.365Z,0.53
2022-12-18T10:04:11.518Z,0.73
2022-12-18T10:06:47.097Z,0.68
2022-12-18T10:09:26.256Z,0.67
2022-12-18T10:12:01.326Z,0.89
2022-12-18T10:14:36.543Z,0.55
2022-12-18T10:17:12.150Z,0.42
2022-12-18T10:19:50.561Z,0.45
2022-12-18T10:22:29.954Z,0.59
2022-12-18T10:25:05.475Z,0.90
2022-12-18T10:27:34.681Z,1.08
2022-12-18T10:30:13.972Z,1.32
2022-12-18T10:32:41.882Z,1.36
2022-12-18T10:35:17.355Z,0.70
2022-12-18T10:38:07.609Z,0.75
2022-12-18T10:40:51.691Z,1.01
2022-12-18T10:43:23.969Z,0.69
2022-12-18T10:46:04.022Z,1.03
2022-12-18T10:48:33.088Z,0.89
2022-12-18T10:51:12.233Z,0.65
2022-12-18T10:53:43.886Z,0.47
2022-12-18T10:56:14.166Z,0.19
2022-12-18T10:58:42.436Z,0.30
2022-12-18T11:01:13.339Z,0.35
2022-12-18T11:03:43.540Z,0.72
2022-12-18T11:06:13.633Z,0.89
2022-12-18T11:08:43.361Z,0.81
2022-12-18T11:11:22.574Z,1.00
2022-12-18T11:14:01.752Z,1.08
2022-12-18T11:16:32.182Z,0.97
2022-12-18T11:19:15.362Z,1.44
2022-12-18T11:21:44.072Z,1.24
2022-12-18T11:24:23.057Z,0.69
2022-12-18T11:26:59.312Z,0.92
2022-12-18T11:29:34.178Z,1.36
2022-12-18T11:32:32.113Z,1.46
2022-12-18T11:35:06.622Z,1.44
2022-12-18T11:37:35.577Z,1.48
2022-12-18T11:40:11.545Z,1.47
2022-12-18T11:42:48.009Z,1.02
2022-12-18T11:45:31.973Z,0.56
2022-12-18T11:48:04.762Z,0.86
2022-12-18T11:50:45.430Z,0.91
2022-12-18T11:53:14.266Z,0.78
2022-12-18T11:55:49.730Z,0.52
2022-12-18T11:58:31.521Z,0.39
2022-12-18T12:01:09.911Z,0.38
2022-12-18T12:04:03.517Z,0.51
2022-12-18T12:06:40.903Z,0.65
2022-12-18T12:09:20.400Z,0.42
2022-12-18T12:11:59.740Z,0.57
2022-12-18T12:14:43.981Z,0.67
2022-12-18T12:17:16.756Z,0.98
2022-12-18T12:19:54.917Z,1.18
2022-12-18T12:22:30.416Z,1.12
2022-12-18T12:25:18.450Z,1.16
2022-12-18T12:27:57.299Z,1.11
2022-12-18T12:30:32.736Z,0.86
2022-12-18T12:33:15.250Z,1.16
2022-12-18T12:35:51.770Z,0.77
2022-12-18T12:38:25.835Z,1.17
2022-12-18T12:41:03.085Z,1.03
2022-12-18T12:43:39.181Z,0.91
2022-12-18T12:46:12.775Z,0.80
2022-12-18T12:48:45.595Z,1.03
2022-12-18T12:51:18.358Z,1.31
2022-12-18T12:53:47.223Z,1.05
2022-12-18T12:56:17.904Z,0.98
2022-12-18T12:58:54.651Z,1.31
2022-12-18T13:01:34.849Z,1.12
2022-12-18T13:04:21.517Z,1.38
2022-12-18T13:06:55.893Z,1.00
2022-12-18T13:09:23.851Z,1.24
2022-12-18T13:12:08.905Z,1.20
2022-12-18T13:14:38.805Z,1.09
2022-12-18T13:17:33.051Z,1.08
2022-12-18T13:20:11.100Z,1.01
2022-12-18T13:22:42.515Z,1.48
2022-12-18T13:25:40.344Z,1.39
2022-12-18T13:28:17.633Z,1.60
2022-12-18T13:30:59.510Z,1.07
2022-12-18T13:34:25.599Z,0.80
2022-12-18T13:36:55.218Z,0.90
2022-12-18T13:39:35.237Z,0.88
2022-12-18T13:42:57.724Z,1.13
2022-12-18T13:45:40.238Z,1.11
2022-12-18T13:48:18.746Z,0.88
2022-12-18T13:50:55.189Z,0.84
2022-12-18T13:53:25.857Z,0.91
2022-12-18T13:55:53.990Z,1.09
2022-12-18T13:58:22.075Z,0.87
2022-12-18T14:00:50.527Z,1.01
2022-12-18T14:03:24.237Z,1.05
2022-12-18T14:06:00.983Z,0.98
2022-12-18T14:08:36.575Z,0.74
2022-12-18T14:11:07.964Z,0.64
2022-12-18T14:13:40.456Z,0.34
2022-12-18T14:16:10.073Z,0.51
2022-12-18T14:18:45.961Z,0.76
2022-12-18T14:21:24.354Z,0.84
2022-12-18T14:24:05.834Z,0.73
2022-12-18T14:26:34.950Z,0.74
2022-12-18T14:29:19.491Z,0.78
2022-12-18T14:31:48.412Z,0.79
2022-12-18T14:34:18.400Z,0.62
2022-12-18T14:36:56.869Z,0.45
2022-12-18T14:39:26.332Z,0.79
2022-12-18T14:41:55.329Z,0.63
2022-12-18T14:44:23.886Z,0.72
2022-12-18T14:46:54.186Z,0.74
2022-12-18T14:49:26.962Z,0.61
2022-12-18T14:51:56.589Z,0.58
2022-12-18T14:54:27.404Z,0.57
2022-12-18T14:57:02.860Z,0.49
2022-12-18T14:59:32.494Z,0.42
2022-12-18T15:02:05.890Z,0.37
2022-12-18T15:04:36.248Z,0.35
2022-12-18T15:07:10.228Z,0.37
2022-12-18T15:09:39.038Z,0.23
2022-12-18T15:12:07.263Z,0.14
2022-12-18T15:14:40.737Z,0.17
2022-12-18T15:17:18.606Z,0.17
2022-12-18T15:19:47.575Z,0.09
2022-12-18T15:22:25.019Z,-0.03
2022-12-18T15:24:53.761Z,-0.20
2022-12-18T15:27:24.552Z,-0.15
2022-12-18T15:30:23.789Z,-0.15
2022-12-18T15:32:52.748Z,-0.17
2022-12-18T15:35:23.519Z,-0.22
2022-12-18T15:37:54.144Z,-0.28
2022-12-18T15:40:24.151Z,-0.24
2022-12-18T15:43:13.635Z,-0.20
2022-12-18T15:45:41.822Z,-0.31
2022-12-18T15:48:24.371Z,-0.34
2022-12-18T15:50:53.686Z,-0.43
2022-12-18T15:53:23.092Z,-0.41
2022-12-18T15:56:08.576Z,-0.47
2022-12-18T15:58:36.328Z,-0.02
2022-12-18T16:01:04.251Z,0.17
2022-12-18T16:03:32.123Z,0.31
2022-12-18T16:06:02.943Z,-0.08
2022-12-18T16:08:33.841Z,-0.27
2022-12-18T16:11:02.687Z,-0.41
2022-12-18T16:13:30.434Z,-0.42
2022-12-18T16:15:58.487Z,-0.42
2022-12-18T16:18:26.627Z,-0.43
2022-12-18T16:20:54.770Z,-0.46
2022-12-18T16:23:22.948Z,-0.42
2022-12-18T16:25:52.662Z,-0.47
2022-12-18T16:28:20.468Z,-0.48
2022-12-18T16:30:48.293Z,-0.61
2022-12-18T16:33:16.303Z,-0.71
2022-12-18T16:35:44.445Z,-0.64
2022-12-18T16:38:12.260Z,-0.59
2022-12-18T16:41:01.817Z,-0.54
2022-12-18T16:43:31.038Z,-0.42
2022-12-18T16:46:00.890Z,-0.34
2022-12-18T16:48:28.640Z,-0.32
2022-12-18T16:51:02.645Z,-0.42
2022-12-18T16:53:30.925Z,-0.38
2022-12-18T16:55:59.841Z,-0.27
2022-12-18T16:58:27.725Z,-0.43
2022-12-18T17:00:57.188Z,-0.28
2022-12-18T17:03:25.432Z,-0.32
2022-12-18T17:05:53.469Z,-0.74
2022-12-18T17:08:21.491Z,-0.42
2022-12-18T17:10:49.253Z,-0.47
2022-12-18T17:13:20.219Z,-0.46
2022-12-18T17:15:51.293Z,-0.42
2022-12-18T17:18:21.456Z,-0.35
2022-12-18T17:20:49.213Z,-0.53
2022-12-18T17:23:17.082Z,-0.36
2022-12-18T17:25:45.190Z,-0.42
2022-12-18T17:28:13.197Z,-0.43
2022-12-18T17:30:40.985Z,-0.43
2022-12-18T17:33:08.730Z,-0.39
2022-12-18T17:35:38.095Z,-0.44
2022-12-18T17:38:05.891Z,-0.39
2022-12-18T17:40:34.559Z,-0.34
2022-12-18T17:43:02.717Z,-0.38
2022-12-18T17:45:30.958Z,-0.45
2022-12-18T17:48:00.078Z,-0.37
2022-12-18T17:50:27.911Z,-0.34
2022-12-18T17:52:58.406Z,-0.37
2022-12-18T17:55:26.516Z,-0.38
2022-12-18T17:57:54.326Z,-0.38
2022-12-18T18:00:23.000Z,-0.32
2022-12-18T18:02:51.243Z,-0.31
2022-12-18T18:05:19.101Z,-0.28
2022-12-18T18:07:46.886Z,-0.28
2022-12-18T18:10:16.091Z,-0.32
2022-12-18T18:13:01.140Z,-0.39
2022-12-18T18:15:28.878Z,-0.42
2022-12-18T18:17:56.710Z,-0.41
2022-12-18T18:20:24.539Z,-0.57
2022-12-18T18:22:52.560Z,-0.57
2022-12-18T18:25:22.235Z,-0.67
2022-12-18T18:27:50.761Z,-0.77
2022-12-18T18:30:18.704Z,-0.80
2022-12-18T18:32:48.110Z,-0.85
2022-12-18T18:35:51.952Z,-0.81
2022-12-18T18:38:04.934Z,-0.83
2022-12-18T18:40:34.502Z,-0.87
2022-12-18T18:43:02.337Z,-0.86
2022-12-18T18:45:32.069Z,-0.83
2022-12-18T18:48:00.021Z,-0.80
2022-12-18T18:50:27.797Z,-0.68
2022-12-18T18:52:55.685Z,-0.66
2022-12-18T18:55:25.582Z,-0.76
2022-12-18T18:57:55.183Z,-0.64
2022-12-18T19:00:23.157Z,-0.77
2022-12-18T19:02:53.989Z,-0.70
2022-12-18T19:05:24.163Z,-0.76
2022-12-18T19:07:51.942Z,-0.83
2022-12-18T19:10:19.695Z,-0.75
2022-12-18T19:13:05.229Z,-0.79
2022-12-18T19:15:34.965Z,-0.76
2022-12-18T19:18:03.218Z,-0.87
2022-12-18T19:20:31.270Z,-0.77
2022-12-18T19:22:59.044Z,-0.77
2022-12-18T19:25:40.260Z,-0.77
2022-12-18T19:28:21.904Z,-0.96
2022-12-18T19:30:55.355Z,-0.89
2022-12-18T19:33:42.493Z,-0.86
2022-12-18T19:36:13.115Z,-0.81
2022-12-18T19:38:43.016Z,-0.85
2022-12-18T19:41:13.465Z,-0.83
2022-12-18T19:43:41.879Z,-0.84
2022-12-18T19:46:14.136Z,-0.93
2022-12-18T19:48:44.065Z,-0.95
2022-12-18T19:51:15.967Z,-0.95
2022-12-18T19:53:44.179Z,-0.88
2022-12-18T19:56:13.927Z,-0.63
2022-12-18T19:58:42.049Z,-0.64
2022-12-18T20:01:11.931Z,-0.68
2022-12-18T20:03:41.522Z,-0.61
2022-12-18T20:06:12.445Z,-0.69
2022-12-18T20:08:40.837Z,-0.57
2022-12-18T20:11:09.120Z,-0.47
2022-12-18T20:13:37.357Z,-0.84
2022-12-18T20:16:05.938Z,-0.66
2022-12-18T20:18:35.285Z,-0.76
2022-12-18T20:21:03.463Z,-0.67
2022-12-18T20:23:32.199Z,-0.63
2022-12-18T20:26:01.530Z,-0.63
2022-12-18T20:28:29.536Z,-0.71
2022-12-18T20:31:00.584Z,-0.62
2022-12-18T20:33:28.936Z,-0.76
2022-12-18T20:36:03.778Z,-0.71
2022-12-18T20:38:31.850Z,-0.83
2022-12-18T20:41:02.694Z,-0.82
2022-12-18T20:43:30.603Z,-0.86
2022-12-18T20:46:03.116Z,-0.77
2022-12-18T20:48:31.996Z,-0.74
2022-12-18T20:51:03.640Z,-0.95
2022-12-18T20:53:34.387Z,-0.84
2022-12-18T20:56:02.394Z,-0.81
2022-12-18T20:58:30.228Z,-0.76
2022-12-18T21:01:04.727Z,-0.79
2022-12-18T21:03:32.564Z,-0.68
2022-12-18T21:06:00.410Z,-0.65
2022-12-18T21:08:28.150Z,-0.81
2022-12-18T21:10:57.727Z,-0.89
2022-12-18T21:13:24.676Z,-0.93
2022-12-18T21:15:55.103Z,-0.92
2022-12-18T21:18:22.913Z,-0.78
2022-12-18T21:20:50.713Z,-0.78
2022-12-18T21:23:18.480Z,-0.80
2022-12-18T21:25:46.930Z,-0.98
2022-12-18T21:28:19.027Z,-0.71
2022-12-18T21:30:46.936Z,-0.65
2022-12-18T21:33:14.787Z,-0.65
2022-12-18T21:35:42.521Z,-0.63
2022-12-18T21:38:10.233Z,-0.94
2022-12-18T21:40:40.149Z,-0.83
2022-12-18T21:43:25.611Z,-0.72
2022-12-18T21:45:55.077Z,-0.80
2022-12-18T21:48:24.162Z,-0.81
2022-12-18T21:50:51.951Z,-1.00
2022-12-18T21:53:19.842Z,-0.94
2022-12-18T21:55:47.590Z,-0.84
2022-12-18T21:58:15.660Z,-1.00
2022-12-18T22:00:48.377Z,-1.05
2022-12-18T22:03:19.239Z,-1.02
2022-12-18T22:05:49.650Z,-0.88
2022-12-18T22:08:32.427Z,-0.69
2022-12-18T22:11:00.210Z,-0.90
2022-12-18T22:13:28.384Z,-0.89
2022-12-18T22:15:56.280Z,-0.69
2022-12-18T22:18:25.413Z,-0.67
2022-12-18T22:21:02.320Z,-0.70
2022-12-18T22:23:30.644Z,-0.75
2022-12-18T22:25:58.846Z,-0.75
2022-12-18T22:28:44.124Z,-0.77
2022-12-18T22:31:11.989Z,-0.74
2022-12-18T22:33:41.118Z,-0.71
2022-12-18T22:36:09.929Z,-0.74
2022-12-18T22:38:38.354Z,-0.86
2022-12-18T22:41:06.580Z,-0.83
2022-12-18T22:43:34.478Z,-0.90
2022-12-18T22:46:02.413Z,-0.99
2022-12-18T22:48:30.783Z,-0.91
2022-12-18T22:50:59.994Z,-0.84
2022-12-18T22:53:27.726Z,-0.82
2022-12-18T22:56:02.410Z,-0.93
2022-12-18T22:58:30.382Z,-0.81
2022-12-18T23:00:58.169Z,-0.94
2022-12-18T23:03:25.962Z,-0.86
2022-12-18T23:05:53.905Z,-0.87
2022-12-18T23:08:24.771Z,-0.94
2022-12-18T23:10:53.841Z,-0.96
2022-12-18T23:13:21.981Z,-1.11
2022-12-18T23:15:50.188Z,-0.85
2022-12-18T23:18:18.710Z,-0.91
2022-12-18T23:20:46.786Z,-0.88
2022-12-18T23:23:15.342Z,-0.86
2022-12-18T23:25:44.631Z,-0.78
2022-12-18T23:28:12.388Z,-0.86
2022-12-18T23:30:40.199Z,-0.81
2022-12-18T23:33:07.975Z,-0.79
2022-12-18T23:35:35.895Z,-0.85
2022-12-18T23:38:03.626Z,-0.87
2022-12-18T23:40:31.382Z,-0.92
2022-12-18T23:43:01.896Z,-0.88
2022-12-18T23:45:29.734Z,-0.96
2022-12-18T23:47:57.619Z,-0.73
2022-12-18T23:50:28.911Z,-0.76
2022-12-18T23:53:05.076Z,-0.82
2022-12-18T23:55:34.513Z,-0.87
2022-12-18T23:58:03.945Z,-0.87
